Erda, Utah
Current Conditions -  °F | °C
As of 11:53 AM on Thursday 23 Oct 2014 (Local Time) from KSLC Reporting Station
Scattered Clouds Scattered Clouds  
Wind Chill: 65°   Ceiling: Unl
Heat Index: 65°   Visibility: 10mi
Dew Point: 31°   Wind: 7mph
Humidity: 28%   Direction: 120°ESE
Pressure: 30.12"   Gusts: NA
Location:  40.5393°N, 112.353°W
Report Text: KSLC 231753Z 12006KT 10SM FEW160 SCT220 SCT250 18/M01 A3012 RMK AO2 SLP172 ACSL DSNT ALQDS T01831006 10183 20067 58005
Loading
Personal Weather Stations






























Interactive Weather Map New forecast layout! Learn more

10-Day Weather Forecast

Advertisements
Track Severe Weather on mobile